KMDT/MDT METAR and TAF weather

Enter ICAO airport designator
Station Type Date Time Source
KMDT METAR 2021/08/05 04:56 UTC NOAA

KMDT 050456Z 00000KT 10SM CLR 19/14 A3011 RMK AO2 SLP197 T01890144 402780167


Station Type Date Time Source
KMDT Decoded METAR 2021/08/05 04:56 UTC NOAA

HARRISBURG INTERNATIONAL AIRPORT, PA, United States (KMDT) 40-12N 076-46W 95M
Aug 05, 2021 - 12:56 AM EDT / 2021.08.05 0456 UTC
Wind: Calm:0
Visibility: 10 mile(s):0
Sky conditions: clear
Temperature: 66.0 F (18.9 C)
Dew Point: 57.9 F (14.4 C)
Relative Humidity: 75%
Pressure (altimeter): 30.11 in. Hg (1019 hPa)
ob: KMDT 050456Z 00000KT 10SM CLR 19/14 A3011 RMK AO2 SLP197 T01890144 402780167
cycle: 5

Station Type Date Time Source
KMDT TAF 2021/08/05 06:22 UTC NOAA

TAF KMDT 050520Z 0506/0606 VRB03KT P6SM SKC

Example: see airport list